Time;durP1;ratioP1;P1;durP2;ratioP2;P2;SDS_P1;SDS_P2;PMS_P1;PMS_P2;Temp;Humidity;BMP_temperature;BMP_pressure;BME280_temperature;BME280_humidity;BME280_pressure;Samples;Min_cycle;Max_cycle;Signal;HPM_P1;HPM_P2
2021/12/10 00:01:42;;;;;;;12.32;10.85;;;;;;;;;;5035177;28;20239;-70
2021/12/10 00:04:10;;;;;;;12.20;9.38;;;;;;;;;;5035064;28;20209;-70
2021/12/10 00:06:39;;;;;;;16.67;10.18;;;;;;;;;;5035490;28;20236;-69
2021/12/10 00:09:09;;;;;;;20.23;10.60;;;;;;;;;;5036048;28;20271;-69
2021/12/10 00:11:38;;;;;;;19.67;10.60;;;;;;;;;;5034990;28;20205;-70
2021/12/10 00:14:07;;;;;;;16.60;10.60;;;;;;;;;;5035366;28;20285;-70
2021/12/10 00:16:35;;;;;;;14.45;9.90;;;;;;;;;;5035116;28;20197;-70
2021/12/10 00:19:16;;;;;;;14.90;10.50;;;;;;;;;;5034744;28;20241;-69
2021/12/10 00:21:44;;;;;;;12.75;9.55;;;;;;;;;;5035137;28;20681;-70
2021/12/10 00:24:12;;;;;;;10.25;9.15;;;;;;;;;;5034631;28;20229;-69
2021/12/10 00:26:39;;;;;;;17.60;10.13;;;;;;;;;;5034710;28;20670;-69
2021/12/10 00:29:07;;;;;;;11.90;9.82;;;;;;;;;;5035068;28;20227;-69
2021/12/10 00:31:47;;;;;;;11.40;10.00;;;;;;;;;;5035025;28;20247;-69
2021/12/10 00:34:18;;;;;;;16.88;9.55;;;;;;;;;;5035093;28;20639;-69
2021/12/10 00:36:46;;;;;;;10.73;8.93;;;;;;;;;;5034983;28;20326;-68
2021/12/10 00:39:14;;;;;;;18.40;11.35;;;;;;;;;;5034362;28;20733;-68
2021/12/10 00:41:41;;;;;;;12.10;9.95;;;;;;;;;;5034701;28;20280;-68
2021/12/10 00:44:09;;;;;;;15.98;10.05;;;;;;;;;;5035173;28;20307;-68
2021/12/10 00:46:36;;;;;;;17.13;9.65;;;;;;;;;;5034271;28;20283;-68
2021/12/10 00:49:04;;;;;;;12.18;10.88;;;;;;;;;;5034352;28;20201;-68
2021/12/10 00:51:33;;;;;;;18.85;10.40;;;;;;;;;;5034831;28;20287;-68
2021/12/10 00:54:01;;;;;;;20.27;10.40;;;;;;;;;;5034737;28;20208;-68
2021/12/10 00:56:29;;;;;;;14.02;10.25;;;;;;;;;;5034402;28;20201;-68
2021/12/10 00:58:56;;;;;;;15.23;10.85;;;;;;;;;;5034390;28;20223;-68
2021/12/10 01:01:25;;;;;;;15.00;11.15;;;;;;;;;;5034369;28;20288;-69
2021/12/10 01:03:54;;;;;;;12.10;9.88;;;;;;;;;;5034125;28;20203;-68
2021/12/10 01:06:22;;;;;;;14.60;10.00;;;;;;;;;;5033806;28;20602;-68
2021/12/10 01:08:53;;;;;;;13.43;10.20;;;;;;;;;;5034532;28;20292;-68
2021/12/10 01:11:22;;;;;;;10.82;9.30;;;;;;;;;;5034427;28;20235;-68
2021/12/10 01:13:51;;;;;;;10.52;9.40;;;;;;;;;;5033682;28;20201;-69
2021/12/10 01:24:48;;;;;;;12.02;9.27;;;;;;;;;;5033597;28;20365;-68
2021/12/10 01:27:27;;;;;;;15.90;10.75;;;;;;;;;;5033511;28;20183;-68
2021/12/10 01:29:57;;;;;;;14.40;9.60;;;;;;;;;;5033476;28;20637;-68
2021/12/10 01:32:25;;;;;;;13.57;10.00;;;;;;;;;;5034404;28;20554;-68
2021/12/10 01:34:52;;;;;;;14.88;9.43;;;;;;;;;;5034190;28;20288;-69
2021/12/10 01:37:20;;;;;;;15.50;10.38;;;;;;;;;;5033495;28;20322;-68
2021/12/10 01:39:49;;;;;;;15.70;10.40;;;;;;;;;;5033651;28;20287;-68
2021/12/10 01:42:29;;;;;;;13.02;9.70;;;;;;;;;;5033342;28;20254;-68
2021/12/10 01:44:58;;;;;;;13.75;10.45;;;;;;;;;;5033284;28;20687;-68
2021/12/10 01:47:27;;;;;;;13.63;9.75;;;;;;;;;;5033847;28;20289;-68
2021/12/10 01:49:55;;;;;;;12.38;9.35;;;;;;;;;;5033313;28;20289;-68
2021/12/10 01:52:22;;;;;;;12.70;9.52;;;;;;;;;;5033942;28;20204;-68
2021/12/10 01:54:53;;;;;;;16.15;9.40;;;;;;;;;;5033506;28;20805;-68
2021/12/10 01:57:22;;;;;;;12.48;10.48;;;;;;;;;;5034030;28;20618;-68
2021/12/10 01:59:49;;;;;;;12.82;9.35;;;;;;;;;;5033422;28;20282;-68
2021/12/10 02:02:18;;;;;;;12.63;9.43;;;;;;;;;;5033461;28;20733;-68
2021/12/10 02:04:47;;;;;;;10.93;9.18;;;;;;;;;;5033285;28;20549;-68
2021/12/10 02:07:16;;;;;;;13.63;10.13;;;;;;;;;;5034092;28;20297;-68
2021/12/10 02:09:44;;;;;;;12.50;8.82;;;;;;;;;;5033449;28;20197;-68
2021/12/10 02:12:12;;;;;;;13.50;9.50;;;;;;;;;;5033134;28;20295;-68
2021/12/10 02:14:40;;;;;;;16.10;10.68;;;;;;;;;;5033350;28;20237;-68
2021/12/10 02:17:07;;;;;;;13.50;10.48;;;;;;;;;;5033322;28;20281;-67
2021/12/10 02:19:36;;;;;;;11.93;9.20;;;;;;;;;;5032889;28;20269;-68
2021/12/10 02:22:06;;;;;;;22.50;14.00;;;;;;;;;;5032981;28;20200;-68
2021/12/10 02:24:33;;;;;;;11.75;10.27;;;;;;;;;;5033103;28;20313;-68
2021/12/10 02:27:02;;;;;;;17.38;10.90;;;;;;;;;;5033112;28;20198;-68
2021/12/10 02:29:31;;;;;;;12.80;9.63;;;;;;;;;;5033137;28;20286;-69
2021/12/10 02:31:58;;;;;;;14.07;11.00;;;;;;;;;;5032737;28;20287;-69
2021/12/10 02:34:26;;;;;;;13.63;8.75;;;;;;;;;;5033096;28;20645;-69
2021/12/10 02:36:53;;;;;;;14.80;10.70;;;;;;;;;;5032907;28;20279;-69
2021/12/10 02:39:23;;;;;;;13.63;10.27;;;;;;;;;;5032916;28;20311;-69
2021/12/10 02:41:50;;;;;;;14.13;10.30;;;;;;;;;;5033389;28;20257;-69
2021/12/10 02:44:19;;;;;;;14.07;9.43;;;;;;;;;;5032577;28;20560;-68
2021/12/10 02:46:46;;;;;;;11.50;9.70;;;;;;;;;;5032965;28;20285;-68
2021/12/10 02:49:15;;;;;;;15.25;9.88;;;;;;;;;;5032624;28;20198;-68
2021/12/10 02:51:44;;;;;;;14.75;9.85;;;;;;;;;;5032563;28;20198;-68
2021/12/10 02:54:14;;;;;;;12.25;10.38;;;;;;;;;;5032804;28;20287;-68
2021/12/10 02:56:44;;;;;;;13.48;8.85;;;;;;;;;;5032951;28;20591;-68
2021/12/10 02:59:12;;;;;;;12.63;8.20;;;;;;;;;;5033071;28;20191;-69
2021/12/10 03:01:40;;;;;;;14.23;9.80;;;;;;;;;;5034348;28;20283;-68
2021/12/10 03:04:08;;;;;;;11.07;8.88;;;;;;;;;;5036664;28;20205;-68
2021/12/10 03:06:37;;;;;;;12.82;9.63;;;;;;;;;;5036140;28;20264;-69
2021/12/10 03:09:05;;;;;;;15.55;9.73;;;;;;;;;;5036233;28;20287;-68
2021/12/10 03:11:34;;;;;;;11.13;8.55;;;;;;;;;;5036824;28;20280;-68
2021/12/10 03:14:08;;;;;;;12.20;8.75;;;;;;;;;;5036149;28;20287;-69
2021/12/10 03:16:35;;;;;;;11.23;8.30;;;;;;;;;;5036648;28;20192;-69
2021/12/10 03:19:03;;;;;;;11.50;8.65;;;;;;;;;;5036104;28;20203;-68
2021/12/10 03:21:30;;;;;;;10.50;8.38;;;;;;;;;;5036455;28;20203;-68
2021/12/10 03:23:57;;;;;;;11.30;9.45;;;;;;;;;;5036372;28;20278;-68
2021/12/10 03:26:25;;;;;;;11.80;8.73;;;;;;;;;;5036454;28;20755;-68
2021/12/10 03:28:53;;;;;;;11.93;10.70;;;;;;;;;;5036315;28;20623;-69
2021/12/10 03:31:22;;;;;;;13.27;9.90;;;;;;;;;;5036633;28;20298;-69
2021/12/10 03:33:50;;;;;;;12.25;8.40;;;;;;;;;;5036887;28;20197;-68
2021/12/10 03:36:17;;;;;;;10.90;8.57;;;;;;;;;;5036251;28;20228;-68
2021/12/10 03:38:45;;;;;;;10.85;8.75;;;;;;;;;;5035760;28;20674;-69
2021/12/10 03:41:13;;;;;;;12.13;8.52;;;;;;;;;;5036156;28;20283;-68
2021/12/10 03:43:41;;;;;;;13.98;8.80;;;;;;;;;;5036362;28;20287;-69
2021/12/10 03:46:08;;;;;;;10.85;9.32;;;;;;;;;;5036026;28;20221;-68
2021/12/10 03:48:40;;;;;;;9.20;7.85;;;;;;;;;;5035920;28;20612;-69
2021/12/10 03:51:08;;;;;;;13.70;9.32;;;;;;;;;;5036434;28;20537;-67
2021/12/10 03:53:36;;;;;;;13.10;9.57;;;;;;;;;;5035516;28;20299;-68
2021/12/10 03:56:05;;;;;;;13.00;8.73;;;;;;;;;;5035547;28;20293;-67
2021/12/10 03:58:32;;;;;;;11.32;9.55;;;;;;;;;;5035710;28;20200;-67
2021/12/10 04:01:00;;;;;;;12.65;9.57;;;;;;;;;;5036274;28;20191;-67
2021/12/10 04:03:30;;;;;;;12.70;9.30;;;;;;;;;;5035915;28;20613;-68
2021/12/10 04:05:58;;;;;;;9.23;8.18;;;;;;;;;;5035623;28;20257;-67
2021/12/10 04:08:26;;;;;;;10.77;9.13;;;;;;;;;;5035878;28;20198;-68
2021/12/10 04:10:54;;;;;;;11.88;9.45;;;;;;;;;;5035907;28;20287;-67
2021/12/10 04:13:21;;;;;;;11.70;8.57;;;;;;;;;;5035001;28;20200;-67
2021/12/10 04:15:48;;;;;;;13.00;8.75;;;;;;;;;;5035689;28;20292;-67
2021/12/10 04:18:16;;;;;;;10.63;8.43;;;;;;;;;;5035089;28;20291;-68
2021/12/10 04:20:43;;;;;;;11.65;8.63;;;;;;;;;;5035042;28;20731;-67
2021/12/10 04:23:15;;;;;;;13.38;9.57;;;;;;;;;;5034863;28;20253;-67
2021/12/10 04:25:42;;;;;;;16.23;10.18;;;;;;;;;;5034838;28;20220;-67
2021/12/10 04:28:11;;;;;;;17.52;9.85;;;;;;;;;;5035217;28;20288;-67
2021/12/10 04:30:40;;;;;;;10.73;9.10;;;;;;;;;;5035265;28;20238;-67
2021/12/10 04:33:08;;;;;;;11.88;9.55;;;;;;;;;;5035236;28;20196;-67
2021/12/10 04:35:35;;;;;;;11.18;8.80;;;;;;;;;;5034604;28;20231;-67
2021/12/10 04:38:03;;;;;;;13.15;9.23;;;;;;;;;;5035596;28;20213;-67
2021/12/10 04:40:31;;;;;;;12.05;9.38;;;;;;;;;;5034962;28;20627;-67
2021/12/10 04:42:59;;;;;;;13.27;9.60;;;;;;;;;;5035611;28;20283;-67
2021/12/10 04:45:26;;;;;;;12.95;9.60;;;;;;;;;;5035171;28;20315;-68
2021/12/10 04:47:54;;;;;;;16.20;9.45;;;;;;;;;;5035115;28;20295;-68
2021/12/10 04:50:23;;;;;;;11.85;9.75;;;;;;;;;;5034490;28;20283;-68
2021/12/10 04:52:50;;;;;;;14.57;8.77;;;;;;;;;;5034819;28;20620;-68
2021/12/10 04:55:18;;;;;;;12.15;10.13;;;;;;;;;;5034322;28;20202;-67
2021/12/10 04:57:47;;;;;;;12.63;9.90;;;;;;;;;;5034610;28;20555;-67
2021/12/10 05:00:16;;;;;;;12.90;10.60;;;;;;;;;;5034407;28;20298;-67
2021/12/10 05:02:44;;;;;;;16.52;10.73;;;;;;;;;;5034658;28;20192;-67
2021/12/10 05:05:12;;;;;;;14.18;10.98;;;;;;;;;;5034218;28;20195;-67
2021/12/10 05:07:39;;;;;;;14.77;10.82;;;;;;;;;;5034060;28;20202;-67
2021/12/10 05:10:09;;;;;;;16.02;9.90;;;;;;;;;;5034387;28;20192;-67
2021/12/10 05:12:37;;;;;;;14.98;11.93;;;;;;;;;;5034352;28;20279;-67
2021/12/10 05:15:06;;;;;;;16.67;11.05;;;;;;;;;;5034511;28;20223;-67
2021/12/10 05:17:35;;;;;;;14.48;10.10;;;;;;;;;;5034375;28;20203;-66
2021/12/10 05:20:06;;;;;;;15.02;10.15;;;;;;;;;;5034184;28;20193;-67
2021/12/10 05:22:34;;;;;;;17.85;11.70;;;;;;;;;;5034551;28;20181;-67
2021/12/10 05:25:01;;;;;;;17.02;11.55;;;;;;;;;;5033864;28;20294;-67
2021/12/10 05:27:28;;;;;;;15.50;10.45;;;;;;;;;;5033830;28;20238;-67
2021/12/10 05:29:56;;;;;;;15.52;10.90;;;;;;;;;;5032870;28;20194;-67
2021/12/10 05:32:25;;;;;;;14.68;10.30;;;;;;;;;;5033619;28;20602;-67
2021/12/10 05:34:54;;;;;;;12.85;11.00;;;;;;;;;;5033342;28;20304;-67
2021/12/10 05:37:22;;;;;;;15.48;10.65;;;;;;;;;;5033605;28;20590;-67
2021/12/10 05:39:49;;;;;;;13.40;10.63;;;;;;;;;;5033102;28;20290;-67
2021/12/10 05:42:16;;;;;;;16.42;10.70;;;;;;;;;;5033107;28;20288;-67
2021/12/10 05:44:44;;;;;;;15.93;11.13;;;;;;;;;;5033440;28;20193;-67
2021/12/10 05:47:11;;;;;;;14.23;11.23;;;;;;;;;;5033545;28;20316;-67
2021/12/10 05:49:40;;;;;;;19.63;11.63;;;;;;;;;;5033743;28;20350;-67
2021/12/10 05:52:07;;;;;;;13.63;10.13;;;;;;;;;;5033792;28;20231;-67
2021/12/10 05:54:35;;;;;;;13.55;9.80;;;;;;;;;;5033628;28;20198;-67
2021/12/10 05:57:03;;;;;;;12.40;10.15;;;;;;;;;;5033658;28;20640;-67
2021/12/10 05:59:31;;;;;;;11.18;9.52;;;;;;;;;;5033554;28;20199;-67
2021/12/10 06:01:58;;;;;;;18.23;9.82;;;;;;;;;;5033312;28;20201;-67
2021/12/10 06:04:27;;;;;;;11.63;9.18;;;;;;;;;;5033885;28;20230;-67
2021/12/10 06:06:56;;;;;;;16.05;10.07;;;;;;;;;;5033393;28;20216;-67
2021/12/10 06:09:24;;;;;;;14.73;9.85;;;;;;;;;;5033808;28;20200;-67
2021/12/10 06:11:51;;;;;;;11.65;8.52;;;;;;;;;;5033390;28;20278;-67
2021/12/10 06:14:18;;;;;;;16.40;9.48;;;;;;;;;;5033149;28;20728;-67
2021/12/10 06:16:45;;;;;;;12.27;9.57;;;;;;;;;;5033272;28;20196;-67
2021/12/10 06:19:19;;;;;;;14.82;9.38;;;;;;;;;;5033309;28;20282;-67
2021/12/10 06:21:46;;;;;;;11.35;9.73;;;;;;;;;;5033654;28;20190;-67
2021/12/10 06:24:15;;;;;;;10.57;8.55;;;;;;;;;;5033829;28;20283;-67
2021/12/10 06:26:42;;;;;;;13.75;9.13;;;;;;;;;;5032873;28;20306;-66
2021/12/10 06:29:09;;;;;;;14.52;9.80;;;;;;;;;;5033599;28;20628;-66
2021/12/10 06:31:37;;;;;;;15.40;10.20;;;;;;;;;;5033028;28;20196;-72
2021/12/10 06:34:05;;;;;;;11.40;8.88;;;;;;;;;;5033275;28;20284;-67
2021/12/10 06:36:35;;;;;;;16.48;9.88;;;;;;;;;;5034895;28;20688;-67
2021/12/10 06:39:04;;;;;;;11.30;8.65;;;;;;;;;;5036834;28;20202;-67
2021/12/10 06:41:33;;;;;;;15.00;11.15;;;;;;;;;;5036770;28;20226;-67
2021/12/10 06:44:04;;;;;;;14.18;9.73;;;;;;;;;;5036775;28;20657;-67
2021/12/10 06:46:31;;;;;;;11.95;8.68;;;;;;;;;;5036599;28;20255;-67
2021/12/10 06:48:58;;;;;;;17.02;9.45;;;;;;;;;;5036901;28;20726;-67
2021/12/10 06:51:25;;;;;;;11.43;8.52;;;;;;;;;;5036486;28;20282;-67
2021/12/10 06:53:53;;;;;;;13.07;8.75;;;;;;;;;;5036469;28;20200;-67
2021/12/10 06:56:21;;;;;;;13.23;8.73;;;;;;;;;;5036738;28;20288;-67
2021/12/10 06:58:50;;;;;;;11.73;8.93;;;;;;;;;;5036957;28;20198;-67
2021/12/10 07:01:27;;;;;;;11.50;9.73;;;;;;;;;;5036828;28;20538;-67
2021/12/10 07:03:56;;;;;;;15.43;10.40;;;;;;;;;;5036812;28;20185;-67
2021/12/10 07:06:23;;;;;;;11.35;9.90;;;;;;;;;;5036164;28;20317;-67
2021/12/10 07:08:51;;;;;;;12.68;8.38;;;;;;;;;;5036012;28;20198;-67
2021/12/10 07:11:19;;;;;;;15.80;8.93;;;;;;;;;;5036397;28;20286;-67
2021/12/10 07:13:50;;;;;;;12.35;9.32;;;;;;;;;;5036341;28;20670;-67
2021/12/10 07:16:20;;;;;;;11.85;9.00;;;;;;;;;;5036247;28;20563;-70
2021/12/10 07:18:49;;;;;;;12.85;8.60;;;;;;;;;;5036298;28;20302;-68
2021/12/10 07:21:16;;;;;;;13.63;9.20;;;;;;;;;;5036230;28;20211;-68
2021/12/10 07:23:45;;;;;;;12.32;8.90;;;;;;;;;;5036241;28;20243;-68
2021/12/10 07:26:16;;;;;;;11.85;8.77;;;;;;;;;;5036138;28;20267;-67
2021/12/10 07:28:46;;;;;;;11.60;8.05;;;;;;;;;;5036385;28;20189;-67
2021/12/10 07:31:13;;;;;;;17.83;8.77;;;;;;;;;;5035760;28;20208;-68
2021/12/10 07:33:42;;;;;;;16.10;8.93;;;;;;;;;;5035706;28;20231;-68
2021/12/10 07:36:17;;;;;;;19.58;8.65;;;;;;;;;;5035934;28;20708;-68
2021/12/10 07:38:45;;;;;;;16.33;8.43;;;;;;;;;;5035713;28;20181;-68
2021/12/10 07:41:12;;;;;;;12.60;9.45;;;;;;;;;;5036657;28;20234;-68
2021/12/10 07:43:40;;;;;;;11.05;8.93;;;;;;;;;;5035549;28;20200;-68
2021/12/10 07:46:07;;;;;;;12.63;9.80;;;;;;;;;;5035799;28;20573;-68
2021/12/10 07:48:35;;;;;;;12.68;8.57;;;;;;;;;;5035214;28;20290;-68
2021/12/10 07:51:06;;;;;;;13.02;7.82;;;;;;;;;;5035630;28;20250;-68
2021/12/10 07:53:34;;;;;;;18.25;8.25;;;;;;;;;;5036214;28;20197;-68
2021/12/10 07:56:05;;;;;;;13.50;7.40;;;;;;;;;;5036100;28;20228;-69
2021/12/10 07:58:34;;;;;;;9.95;7.65;;;;;;;;;;5036264;28;20224;-67
2021/12/10 08:01:06;;;;;;;10.85;7.35;;;;;;;;;;5035994;28;20640;-67
2021/12/10 08:03:33;;;;;;;8.82;6.45;;;;;;;;;;5035710;28;20218;-68
2021/12/10 08:06:00;;;;;;;9.95;7.68;;;;;;;;;;5035791;28;20204;-67
2021/12/10 08:08:29;;;;;;;13.07;7.30;;;;;;;;;;5035422;28;20232;-68
2021/12/10 08:10:56;;;;;;;9.88;7.47;;;;;;;;;;5035119;28;20282;-68
2021/12/10 08:13:23;;;;;;;9.15;7.30;;;;;;;;;;5034897;28;20292;-68
2021/12/10 08:15:51;;;;;;;9.73;7.53;;;;;;;;;;5035344;28;20314;-67
2021/12/10 08:18:18;;;;;;;13.80;8.57;;;;;;;;;;5035194;28;20201;-67
2021/12/10 08:20:45;;;;;;;9.82;7.40;;;;;;;;;;5035022;28;20231;-67
2021/12/10 08:23:13;;;;;;;14.90;8.57;;;;;;;;;;5035407;28;20247;-68
2021/12/10 08:25:41;;;;;;;12.05;6.53;;;;;;;;;;5035049;28;20588;-68
2021/12/10 08:28:09;;;;;;;13.02;7.55;;;;;;;;;;5034626;28;20212;-67
2021/12/10 08:30:37;;;;;;;10.80;7.38;;;;;;;;;;5035197;28;20232;-68
2021/12/10 08:33:11;;;;;;;16.38;7.55;;;;;;;;;;5034863;28;20236;-67
2021/12/10 08:35:38;;;;;;;10.95;7.40;;;;;;;;;;5035002;28;20222;-67
2021/12/10 08:38:05;;;;;;;20.35;8.80;;;;;;;;;;5034769;28;20672;-68
2021/12/10 08:40:34;;;;;;;13.77;7.40;;;;;;;;;;5035356;28;20637;-68
2021/12/10 08:43:03;;;;;;;18.70;7.55;;;;;;;;;;5035232;28;20613;-68
2021/12/10 08:45:31;;;;;;;16.98;10.45;;;;;;;;;;5034897;28;20208;-67
2021/12/10 08:47:59;;;;;;;11.63;8.68;;;;;;;;;;5034505;28;20220;-68
2021/12/10 08:50:27;;;;;;;13.52;8.65;;;;;;;;;;5035376;28;20288;-68
2021/12/10 08:52:57;;;;;;;14.57;8.90;;;;;;;;;;5034631;28;20231;-68
2021/12/10 08:55:25;;;;;;;10.95;7.20;;;;;;;;;;5034194;28;20207;-68
2021/12/10 08:57:52;;;;;;;12.60;8.75;;;;;;;;;;5034231;28;20226;-67
2021/12/10 09:00:21;;;;;;;11.95;7.90;;;;;;;;;;5033393;28;20202;-68
2021/12/10 09:02:49;;;;;;;9.68;7.43;;;;;;;;;;5034488;28;20614;-70
2021/12/10 09:05:16;;;;;;;9.93;6.57;;;;;;;;;;5034180;28;20232;-68
2021/12/10 09:07:45;;;;;;;13.40;6.75;;;;;;;;;;5034578;28;20673;-68
2021/12/10 09:10:20;;;;;;;11.85;7.35;;;;;;;;;;5035105;28;20255;-68
2021/12/10 09:12:47;;;;;;;14.38;6.07;;;;;;;;;;5034627;28;20269;-68
2021/12/10 09:15:19;;;;;;;11.55;6.53;;;;;;;;;;5034216;28;20566;-68
2021/12/10 09:17:48;;;;;;;8.52;6.50;;;;;;;;;;5034467;28;20651;-68
2021/12/10 09:20:18;;;;;;;7.75;5.80;;;;;;;;;;5033922;28;20564;-68
2021/12/10 09:22:45;;;;;;;10.95;5.43;;;;;;;;;;5034327;28;20206;-68
2021/12/10 09:25:13;;;;;;;13.35;5.93;;;;;;;;;;5033212;28;20734;-67
2021/12/10 09:27:41;;;;;;;7.60;5.57;;;;;;;;;;5033779;28;20703;-68
2021/12/10 09:30:09;;;;;;;7.70;5.75;;;;;;;;;;5033584;28;20288;-69
2021/12/10 09:32:36;;;;;;;12.38;6.30;;;;;;;;;;5033476;28;20228;-69
2021/12/10 09:35:07;;;;;;;9.02;5.82;;;;;;;;;;5033718;28;20287;-68
2021/12/10 09:37:34;;;;;;;9.65;5.70;;;;;;;;;;5033352;28;20229;-68
2021/12/10 09:40:02;;;;;;;11.75;6.90;;;;;;;;;;5033812;28;20287;-69
2021/12/10 09:42:29;;;;;;;8.00;5.50;;;;;;;;;;5033339;28;20207;-69
2021/12/10 09:44:57;;;;;;;13.32;6.03;;;;;;;;;;5034197;28;20198;-69
2021/12/10 09:47:24;;;;;;;12.48;7.03;;;;;;;;;;5033494;28;20211;-69
2021/12/10 09:49:54;;;;;;;8.65;6.60;;;;;;;;;;5033300;28;20209;-68
2021/12/10 09:52:24;;;;;;;12.85;5.22;;;;;;;;;;5033624;28;20193;-69
2021/12/10 09:54:52;;;;;;;9.35;5.82;;;;;;;;;;5033735;28;20591;-68
2021/12/10 09:57:22;;;;;;;7.85;5.18;;;;;;;;;;5033503;28;20202;-68
2021/12/10 09:59:51;;;;;;;9.10;5.75;;;;;;;;;;5034020;28;20193;-68
2021/12/10 10:02:19;;;;;;;9.48;6.85;;;;;;;;;;5033624;28;20207;-68
2021/12/10 10:04:49;;;;;;;6.45;5.20;;;;;;;;;;5033392;28;20239;-68
2021/12/10 10:07:17;;;;;;;7.55;5.40;;;;;;;;;;5033479;28;20233;-68
2021/12/10 10:09:48;;;;;;;7.63;5.30;;;;;;;;;;5033361;28;20259;-68
2021/12/10 10:12:17;;;;;;;8.35;5.70;;;;;;;;;;5039931;28;20198;-68
2021/12/10 10:14:44;;;;;;;13.43;6.05;;;;;;;;;;5040689;28;20708;-68
2021/12/10 10:17:13;;;;;;;9.13;5.63;;;;;;;;;;5039534;28;20230;-69
2021/12/10 10:19:41;;;;;;;10.13;6.38;;;;;;;;;;5039857;28;20197;-69
2021/12/10 10:22:10;;;;;;;8.85;5.03;;;;;;;;;;5039489;28;20200;-68
2021/12/10 10:24:38;;;;;;;15.05;5.10;;;;;;;;;;5040073;28;20229;-68
2021/12/10 10:27:09;;;;;;;7.80;5.50;;;;;;;;;;5039699;28;20226;-68
2021/12/10 10:29:38;;;;;;;8.85;5.60;;;;;;;;;;5039442;28;20277;-68
2021/12/10 10:32:10;;;;;;;9.05;6.00;;;;;;;;;;5039373;28;20241;-68
2021/12/10 10:34:39;;;;;;;13.20;5.85;;;;;;;;;;5040095;28;20184;-68
2021/12/10 10:37:06;;;;;;;12.10;6.20;;;;;;;;;;5039958;28;20712;-68
2021/12/10 10:39:43;;;;;;;7.97;6.18;;;;;;;;;;5040136;28;20244;-68
2021/12/10 10:42:14;;;;;;;7.80;5.53;;;;;;;;;;5040247;28;20273;-68
2021/12/10 10:44:42;;;;;;;9.68;5.53;;;;;;;;;;5040355;28;20267;-68
2021/12/10 10:47:16;;;;;;;6.25;5.63;;;;;;;;;;5039297;28;20732;-68
2021/12/10 10:49:45;;;;;;;16.45;8.07;;;;;;;;;;5040035;28;20652;-68
2021/12/10 10:52:20;;;;;;;6.93;5.18;;;;;;;;;;5039727;28;20230;-68
2021/12/10 10:54:50;;;;;;;6.28;5.50;;;;;;;;;;5039306;28;20207;-68
2021/12/10 10:57:24;;;;;;;8.60;6.05;;;;;;;;;;5039320;28;20239;-68
2021/12/10 10:59:56;;;;;;;9.00;5.72;;;;;;;;;;5039896;28;20218;-67
2021/12/10 11:02:23;;;;;;;10.23;5.15;;;;;;;;;;5039915;28;20185;-68
2021/12/10 11:04:52;;;;;;;17.92;6.97;;;;;;;;;;5039479;28;20637;-68
2021/12/10 11:07:21;;;;;;;16.58;5.70;;;;;;;;;;5039078;28;20679;-68
2021/12/10 11:09:52;;;;;;;8.30;5.10;;;;;;;;;;5039277;28;20196;-67
2021/12/10 11:12:24;;;;;;;8.93;6.43;;;;;;;;;;5039537;28;20223;-68
2021/12/10 11:14:53;;;;;;;10.32;6.18;;;;;;;;;;5039561;28;20186;-69
2021/12/10 11:17:22;;;;;;;7.47;4.75;;;;;;;;;;5039252;28;20249;-67
2021/12/10 11:19:51;;;;;;;9.82;5.15;;;;;;;;;;5039007;28;20206;-69
2021/12/10 11:22:20;;;;;;;7.28;5.45;;;;;;;;;;5037033;28;20198;-67
2021/12/10 11:24:48;;;;;;;9.80;4.80;;;;;;;;;;5036466;28;20228;-67
2021/12/10 11:27:24;;;;;;;6.57;4.45;;;;;;;;;;5036025;28;20221;-67
2021/12/10 11:29:52;;;;;;;7.38;4.57;;;;;;;;;;5036551;28;20185;-67
2021/12/10 11:32:21;;;;;;;7.43;5.63;;;;;;;;;;5036074;28;20197;-67
2021/12/10 11:34:51;;;;;;;10.32;4.85;;;;;;;;;;5035689;28;20193;-67
2021/12/10 11:37:19;;;;;;;5.50;4.93;;;;;;;;;;5036522;28;20655;-67
2021/12/10 11:39:49;;;;;;;14.02;4.80;;;;;;;;;;5035746;28;20300;-67
2021/12/10 11:42:38;;;;;;;4.60;4.20;;;;;;;;;;5036000;28;20721;-68
2021/12/10 11:45:17;;;;;;;5.13;4.03;;;;;;;;;;5035575;28;20195;-67
2021/12/10 11:47:48;;;;;;;6.45;4.10;;;;;;;;;;5036216;28;20210;-67
2021/12/10 11:50:18;;;;;;;7.07;3.58;;;;;;;;;;5035694;28;20189;-67
2021/12/10 11:52:46;;;;;;;6.47;3.72;;;;;;;;;;5035603;28;20322;-68
2021/12/10 11:55:18;;;;;;;5.60;3.63;;;;;;;;;;5035399;28;20285;-67
2021/12/10 11:57:50;;;;;;;5.03;3.58;;;;;;;;;;5035512;28;20718;-67
2021/12/10 12:00:19;;;;;;;4.45;4.05;;;;;;;;;;5035352;28;20226;-66
2021/12/10 12:02:48;;;;;;;7.22;4.00;;;;;;;;;;5035428;28;20604;-66
2021/12/10 12:05:17;;;;;;;3.75;3.45;;;;;;;;;;5035060;28;20196;-67
2021/12/10 12:07:46;;;;;;;4.28;2.80;;;;;;;;;;5034919;28;20287;-67
2021/12/10 12:10:20;;;;;;;9.73;3.22;;;;;;;;;;5035352;28;20375;-67
2021/12/10 12:12:50;;;;;;;7.43;4.60;;;;;;;;;;5035467;28;20185;-67
2021/12/10 12:15:26;;;;;;;8.98;3.40;;;;;;;;;;5035694;28;20210;-66
2021/12/10 12:17:55;;;;;;;3.58;3.13;;;;;;;;;;5034873;28;20673;-67
2021/12/10 12:20:24;;;;;;;6.03;3.13;;;;;;;;;;5035239;28;20233;-67
2021/12/10 12:25:44;;;;;;;8.75;4.22;;;;;;;;;;5034887;28;20578;-67
2021/12/10 12:28:14;;;;;;;11.20;4.47;;;;;;;;;;5034605;28;20275;-67
2021/12/10 12:30:59;;;;;;;7.40;3.83;;;;;;;;;;5034938;28;20292;-66
2021/12/10 12:33:28;;;;;;;3.88;2.50;;;;;;;;;;5034475;28;20217;-66
2021/12/10 12:35:55;;;;;;;7.40;3.88;;;;;;;;;;5034562;28;20263;-67
2021/12/10 12:38:27;;;;;;;6.88;3.00;;;;;;;;;;5034460;28;20293;-67
2021/12/10 12:41:06;;;;;;;6.25;3.47;;;;;;;;;;5035038;28;20211;-67
2021/12/10 12:43:35;;;;;;;10.18;3.45;;;;;;;;;;5034559;28;20227;-66
2021/12/10 12:46:05;;;;;;;12.05;3.28;;;;;;;;;;5034479;28;20244;-67
2021/12/10 12:48:33;;;;;;;4.78;3.05;;;;;;;;;;5034753;28;20221;-67
2021/12/10 12:51:02;;;;;;;4.70;3.45;;;;;;;;;;5034771;28;20224;-67
2021/12/10 12:53:33;;;;;;;5.10;3.35;;;;;;;;;;5034295;28;20660;-67
2021/12/10 12:56:05;;;;;;;5.20;3.40;;;;;;;;;;5034385;28;20193;-67
2021/12/10 12:58:36;;;;;;;5.50;3.05;;;;;;;;;;5034790;28;20543;-67
2021/12/10 13:01:11;;;;;;;4.70;2.80;;;;;;;;;;5034658;28;20292;-66
2021/12/10 13:03:41;;;;;;;8.57;2.83;;;;;;;;;;5034535;28;20182;-68
2021/12/10 13:06:13;;;;;;;3.65;2.97;;;;;;;;;;5034505;28;20285;-67
2021/12/10 13:08:43;;;;;;;10.35;3.00;;;;;;;;;;5033887;28;20300;-66
2021/12/10 13:11:13;;;;;;;10.00;2.80;;;;;;;;;;5034346;28;20190;-69
2021/12/10 13:13:44;;;;;;;3.20;2.53;;;;;;;;;;5034258;28;20563;-67
2021/12/10 13:16:13;;;;;;;3.58;2.50;;;;;;;;;;5034274;28;20226;-66
2021/12/10 13:18:41;;;;;;;17.40;3.85;;;;;;;;;;5034272;28;20631;-63
2021/12/10 13:21:09;;;;;;;13.27;3.42;;;;;;;;;;5033955;28;20197;-83
2021/12/10 13:23:37;;;;;;;6.70;3.50;;;;;;;;;;5033776;28;20575;-66
2021/12/10 13:26:05;;;;;;;6.30;3.65;;;;;;;;;;5033596;28;20297;-66
2021/12/10 13:28:33;;;;;;;6.18;3.08;;;;;;;;;;5034106;28;20619;-69
2021/12/10 13:31:02;;;;;;;8.40;2.97;;;;;;;;;;5032559;28;20242;-67
2021/12/10 13:33:33;;;;;;;6.68;3.35;;;;;;;;;;5033226;28;20191;-67
2021/12/10 13:36:02;;;;;;;7.32;3.20;;;;;;;;;;5032975;28;20324;-67
2021/12/10 13:38:32;;;;;;;5.55;3.22;;;;;;;;;;5033180;28;20209;-68
2021/12/10 13:41:00;;;;;;;11.05;3.53;;;;;;;;;;5033149;28;20194;-67
2021/12/10 13:43:28;;;;;;;8.38;3.33;;;;;;;;;;5033481;28;20286;-67
2021/12/10 13:45:59;;;;;;;17.63;3.55;;;;;;;;;;5032623;28;20289;-67
2021/12/10 13:48:39;;;;;;;7.97;3.35;;;;;;;;;;5033465;28;20654;-67
2021/12/10 13:51:07;;;;;;;7.80;3.05;;;;;;;;;;5033022;28;20217;-68
2021/12/10 13:53:35;;;;;;;5.63;3.10;;;;;;;;;;5033669;28;20201;-67
2021/12/10 13:56:04;;;;;;;3.40;2.53;;;;;;;;;;5033566;28;20255;-67
2021/12/10 13:58:34;;;;;;;10.10;3.50;;;;;;;;;;5033543;28;20202;-67
2021/12/10 14:01:04;;;;;;;10.90;4.65;;;;;;;;;;5033108;28;20200;-68
2021/12/10 14:03:46;;;;;;;10.27;4.20;;;;;;;;;;5033108;28;20219;-67
2021/12/10 14:06:14;;;;;;;5.38;3.65;;;;;;;;;;5032974;28;20288;-67
2021/12/10 14:08:42;;;;;;;3.60;3.30;;;;;;;;;;5032738;28;20260;-67
2021/12/10 14:11:15;;;;;;;3.60;2.33;;;;;;;;;;5032757;28;20672;-67
2021/12/10 14:13:42;;;;;;;8.05;2.50;;;;;;;;;;5033163;28;20202;-67
2021/12/10 14:16:11;;;;;;;6.63;3.47;;;;;;;;;;5033116;28;20296;-67
2021/12/10 14:18:39;;;;;;;5.00;2.75;;;;;;;;;;5033335;28;20204;-67
2021/12/10 14:21:10;;;;;;;4.40;2.45;;;;;;;;;;5032417;28;20291;-68
2021/12/10 14:23:38;;;;;;;7.43;3.05;;;;;;;;;;5032412;28;20283;-67
2021/12/10 14:26:07;;;;;;;20.42;2.88;;;;;;;;;;5032648;28;20253;-67
2021/12/10 14:28:38;;;;;;;5.40;2.90;;;;;;;;;;5032472;28;20312;-67
2021/12/10 14:31:06;;;;;;;7.90;3.10;;;;;;;;;;5032278;28;20745;-67
2021/12/10 14:33:34;;;;;;;8.57;3.25;;;;;;;;;;5033140;28;20203;-67
2021/12/10 14:36:05;;;;;;;12.63;3.15;;;;;;;;;;5032591;28;20320;-67
2021/12/10 14:38:35;;;;;;;9.43;3.80;;;;;;;;;;5033036;28;20223;-67
2021/12/10 14:41:06;;;;;;;3.58;3.28;;;;;;;;;;5032696;28;20310;-67
2021/12/10 14:43:38;;;;;;;5.15;3.15;;;;;;;;;;5033193;28;20268;-67
2021/12/10 14:46:13;;;;;;;5.18;2.63;;;;;;;;;;5033598;28;20185;-67
2021/12/10 14:48:59;;;;;;;4.97;3.50;;;;;;;;;;5032912;28;20640;-67
2021/12/10 14:51:27;;;;;;;7.18;2.72;;;;;;;;;;5032459;28;20709;-67
2021/12/10 14:54:02;;;;;;;7.13;3.55;;;;;;;;;;5033469;28;20234;-66